Time;durP1;ratioP1;P1;durP2;ratioP2;P2;SDS_P1;SDS_P2;PMS_P1;PMS_P2;Temp;Humidity;BMP_temperature;BMP_pressure;BME280_temperature;BME280_humidity;BME280_pressure;Samples;Min_cycle;Max_cycle;Signal;HPM_P1;HPM_P2
2024/04/26 00:00:36;;;;;;;7.30;6.55;;;;;;;;;;5115752;28;20228;-88
2024/04/26 00:03:02;;;;;;;6.03;5.50;;;;;;;;;;5116744;27;20351;-88
2024/04/26 00:05:28;;;;;;;5.90;5.60;;;;;;;;;;5147650;27;20468;-88
2024/04/26 00:07:54;;;;;;;6.67;6.17;;;;;;;;;;5120498;27;20307;-88
2024/04/26 00:10:20;;;;;;;5.80;5.47;;;;;;;;;;5148021;27;20544;-88
2024/04/26 00:12:46;;;;;;;6.43;5.87;;;;;;;;;;5147828;27;20464;-87
2024/04/26 00:15:12;;;;;;;5.90;5.50;;;;;;;;;;5147825;27;20464;-87
2024/04/26 00:17:38;;;;;;;6.45;5.80;;;;;;;;;;5149553;27;20227;-88
2024/04/26 00:20:04;;;;;;;6.40;5.87;;;;;;;;;;5146635;27;20620;-87
2024/04/26 00:22:30;;;;;;;6.97;5.97;;;;;;;;;;5149346;27;20460;-86
2024/04/26 00:24:56;;;;;;;5.90;5.50;;;;;;;;;;5147403;27;20266;-88
2024/04/26 00:27:22;;;;;;;9.37;6.40;;;;;;;;;;5147590;27;20231;-88
2024/04/26 00:29:48;;;;;;;6.78;6.03;;;;;;;;;;5147153;27;20475;-89
2024/04/26 00:32:17;;;;;;;7.33;6.63;;;;;;;;;;5147737;27;20715;-85
2024/04/26 00:34:43;;;;;;;12.52;6.60;;;;;;;;;;5147715;27;20996;-85
2024/04/26 00:37:09;;;;;;;7.40;6.77;;;;;;;;;;5147156;27;20257;-88
2024/04/26 00:39:35;;;;;;;6.67;6.30;;;;;;;;;;5147680;27;20455;-88
2024/04/26 00:42:02;;;;;;;7.40;6.30;;;;;;;;;;5148864;27;20518;-88
2024/04/26 00:44:28;;;;;;;8.82;6.90;;;;;;;;;;5146961;27;20452;-87
2024/04/26 00:46:54;;;;;;;6.93;6.35;;;;;;;;;;5148672;27;20350;-88
2024/04/26 00:49:20;;;;;;;11.13;6.40;;;;;;;;;;5147301;27;20234;-85
2024/04/26 00:51:47;;;;;;;9.25;6.70;;;;;;;;;;5166086;27;20245;-86
2024/04/26 00:54:20;;;;;;;7.70;6.88;;;;;;;;;;5181081;27;20286;-86
2024/04/26 00:56:46;;;;;;;7.25;6.55;;;;;;;;;;5182183;27;20238;-87
2024/04/26 00:59:18;;;;;;;7.38;6.78;;;;;;;;;;5182166;27;20226;-87
2024/04/26 01:01:45;;;;;;;7.28;6.57;;;;;;;;;;5154147;27;20620;-87
2024/04/26 01:04:11;;;;;;;10.40;6.40;;;;;;;;;;5179495;27;20240;-89
2024/04/26 01:06:37;;;;;;;7.43;6.80;;;;;;;;;;5180861;27;20325;-87
2024/04/26 01:09:03;;;;;;;6.93;6.43;;;;;;;;;;5179313;27;20469;-88
2024/04/26 01:11:29;;;;;;;7.90;7.03;;;;;;;;;;5181118;27;20457;-89
2024/04/26 01:13:55;;;;;;;9.48;6.60;;;;;;;;;;5179083;27;20268;-88
2024/04/26 01:16:21;;;;;;;7.55;6.90;;;;;;;;;;5180922;27;20319;-88
2024/04/26 01:18:47;;;;;;;7.00;6.30;;;;;;;;;;5181152;27;20245;-88
2024/04/26 01:21:14;;;;;;;8.27;6.40;;;;;;;;;;5180607;27;20857;-88
2024/04/26 01:23:40;;;;;;;7.10;6.25;;;;;;;;;;5180857;27;20458;-88
2024/04/26 01:26:05;;;;;;;8.07;6.57;;;;;;;;;;5179000;27;20226;-88
2024/04/26 01:28:33;;;;;;;7.07;6.37;;;;;;;;;;5180832;27;20272;-88
2024/04/26 01:30:59;;;;;;;8.57;6.68;;;;;;;;;;5178602;27;20462;-88
2024/04/26 01:33:25;;;;;;;6.73;6.23;;;;;;;;;;5181478;27;20269;-86
2024/04/26 01:35:51;;;;;;;8.10;6.70;;;;;;;;;;5191507;27;20461;-85
2024/04/26 01:38:17;;;;;;;7.45;6.50;;;;;;;;;;5194208;27;20240;-85
2024/04/26 01:40:43;;;;;;;7.07;6.30;;;;;;;;;;5192539;27;20234;-87
2024/04/26 01:43:09;;;;;;;10.50;6.63;;;;;;;;;;5182735;27;20553;-86
2024/04/26 01:45:35;;;;;;;7.25;6.53;;;;;;;;;;5179701;27;20236;-86
2024/04/26 01:48:02;;;;;;;7.60;7.00;;;;;;;;;;5181238;27;20281;-86
2024/04/26 01:50:28;;;;;;;7.03;6.53;;;;;;;;;;5181396;27;20842;-86
2024/04/26 01:52:54;;;;;;;7.33;6.20;;;;;;;;;;5208355;27;20241;-86
2024/04/26 01:55:20;;;;;;;9.20;8.00;;;;;;;;;;5213093;27;20997;-88
2024/04/26 01:57:46;;;;;;;7.00;6.40;;;;;;;;;;5213559;27;20461;-88
2024/04/26 02:00:12;;;;;;;10.27;7.10;;;;;;;;;;5213155;27;20614;-88
2024/04/26 02:02:38;;;;;;;7.72;7.00;;;;;;;;;;5184167;27;20713;-86
2024/04/26 02:05:05;;;;;;;7.00;6.50;;;;;;;;;;5183988;27;20240;-87
2024/04/26 02:07:31;;;;;;;7.85;6.45;;;;;;;;;;5184810;27;20237;-86
2024/04/26 02:09:58;;;;;;;6.90;6.40;;;;;;;;;;5212939;27;20221;-86
2024/04/26 02:12:25;;;;;;;7.00;6.50;;;;;;;;;;5212912;27;20271;-87
2024/04/26 02:14:51;;;;;;;7.10;6.50;;;;;;;;;;5213431;27;20289;-86
2024/04/26 02:17:17;;;;;;;7.20;6.50;;;;;;;;;;5212703;27;20233;-86
2024/04/26 02:19:43;;;;;;;8.40;6.97;;;;;;;;;;5212718;27;20968;-87
2024/04/26 02:22:09;;;;;;;6.67;6.20;;;;;;;;;;5212495;27;20259;-86
2024/04/26 02:24:35;;;;;;;7.28;6.47;;;;;;;;;;5213141;27;21028;-86
2024/04/26 02:27:01;;;;;;;7.30;6.63;;;;;;;;;;5212511;27;20229;-86
2024/04/26 02:29:27;;;;;;;13.40;7.20;;;;;;;;;;5212846;27;20445;-86
2024/04/26 02:31:53;;;;;;;7.47;6.87;;;;;;;;;;5184331;27;20457;-86
2024/04/26 02:34:19;;;;;;;6.82;6.40;;;;;;;;;;5212304;27;20977;-86
2024/04/26 02:36:45;;;;;;;7.85;7.10;;;;;;;;;;5212255;27;20275;-86
2024/04/26 02:39:11;;;;;;;7.57;7.00;;;;;;;;;;5183309;27;20385;-86
2024/04/26 02:41:37;;;;;;;7.05;6.55;;;;;;;;;;5213160;27;20316;-86
2024/04/26 02:44:04;;;;;;;8.10;6.20;;;;;;;;;;5215094;27;20682;-86
2024/04/26 02:46:31;;;;;;;9.32;6.65;;;;;;;;;;5159941;27;20542;-86
2024/04/26 02:48:57;;;;;;;7.53;6.90;;;;;;;;;;5215613;27;20725;-87
2024/04/26 02:51:23;;;;;;;12.20;7.30;;;;;;;;;;5215990;27;20252;-86
2024/04/26 02:53:49;;;;;;;7.33;6.83;;;;;;;;;;5186761;27;20789;-88
2024/04/26 02:56:15;;;;;;;8.68;7.22;;;;;;;;;;5215759;27;20507;-86
2024/04/26 02:58:41;;;;;;;7.30;6.70;;;;;;;;;;5186882;27;20573;-86
2024/04/26 03:01:08;;;;;;;7.25;6.55;;;;;;;;;;5157309;27;20517;-87
2024/04/26 03:03:35;;;;;;;7.82;7.10;;;;;;;;;;5154010;27;20257;-86
2024/04/26 03:06:05;;;;;;;7.70;7.05;;;;;;;;;;5154236;27;20238;-87
2024/04/26 03:08:31;;;;;;;8.60;6.68;;;;;;;;;;5218393;27;20242;-87
2024/04/26 03:10:57;;;;;;;7.57;7.03;;;;;;;;;;5248850;27;20271;-88
2024/04/26 03:13:24;;;;;;;7.90;6.70;;;;;;;;;;5249006;27;20502;-87
2024/04/26 03:15:49;;;;;;;9.38;7.70;;;;;;;;;;5213739;27;20492;-87
2024/04/26 03:18:15;;;;;;;8.53;7.37;;;;;;;;;;5215250;27;20229;-87
2024/04/26 03:20:42;;;;;;;9.18;6.97;;;;;;;;;;5213609;27;20558;-87
2024/04/26 03:23:08;;;;;;;7.88;7.00;;;;;;;;;;5186285;27;20233;-87
2024/04/26 03:25:34;;;;;;;8.18;6.65;;;;;;;;;;5215403;27;20277;-87
2024/04/26 03:28:00;;;;;;;7.87;7.03;;;;;;;;;;5213261;27;20240;-87
2024/04/26 03:30:26;;;;;;;7.85;7.03;;;;;;;;;;5213498;27;20453;-87
2024/04/26 03:32:52;;;;;;;7.63;6.93;;;;;;;;;;5213394;27;20305;-86
2024/04/26 03:35:18;;;;;;;9.60;6.40;;;;;;;;;;5215043;27;20499;-87
2024/04/26 03:37:44;;;;;;;7.97;7.28;;;;;;;;;;5215019;27;20529;-86
2024/04/26 03:40:13;;;;;;;10.63;7.83;;;;;;;;;;5215138;27;20221;-87
2024/04/26 03:42:42;;;;;;;9.02;7.25;;;;;;;;;;5213334;27;20493;-87
2024/04/26 03:45:08;;;;;;;9.88;7.65;;;;;;;;;;5214141;27;20755;-88
2024/04/26 03:47:34;;;;;;;9.73;7.03;;;;;;;;;;5219114;27;20254;-87
2024/04/26 03:50:00;;;;;;;7.97;7.27;;;;;;;;;;5158904;27;20473;-86
2024/04/26 03:52:27;;;;;;;7.83;6.97;;;;;;;;;;5214710;27;20539;-87
2024/04/26 03:54:53;;;;;;;9.20;7.78;;;;;;;;;;5214850;27;20544;-87
2024/04/26 03:57:19;;;;;;;8.38;7.45;;;;;;;;;;5214044;27;20221;-87
2024/04/26 03:59:45;;;;;;;7.97;7.17;;;;;;;;;;5214750;27;20225;-87
2024/04/26 04:02:11;;;;;;;8.30;7.45;;;;;;;;;;5185605;27;20702;-87
2024/04/26 04:04:37;;;;;;;6.70;6.30;;;;;;;;;;5214842;27;20228;-87
2024/04/26 04:07:03;;;;;;;11.80;7.83;;;;;;;;;;5158841;27;20497;-87
2024/04/26 04:09:29;;;;;;;11.27;7.00;;;;;;;;;;5214894;27;20849;-87
2024/04/26 04:11:55;;;;;;;8.02;7.18;;;;;;;;;;5214759;27;20573;-86
2024/04/26 04:14:21;;;;;;;8.75;7.18;;;;;;;;;;5220143;27;20251;-88
2024/04/26 04:16:47;;;;;;;7.47;6.97;;;;;;;;;;5180460;27;20576;-87
2024/04/26 04:19:13;;;;;;;10.73;7.40;;;;;;;;;;5162885;27;20272;-87
2024/04/26 04:21:39;;;;;;;8.65;7.85;;;;;;;;;;5213097;27;20851;-87
2024/04/26 04:24:05;;;;;;;8.07;7.17;;;;;;;;;;5213601;27;20384;-87
2024/04/26 04:26:31;;;;;;;8.30;7.47;;;;;;;;;;5184119;27;20512;-87
2024/04/26 04:28:57;;;;;;;8.53;7.73;;;;;;;;;;5211985;27;20360;-87
2024/04/26 04:31:24;;;;;;;9.45;8.40;;;;;;;;;;5185244;27;20578;-87
2024/04/26 04:33:50;;;;;;;8.20;7.63;;;;;;;;;;5214045;27;20244;-87
2024/04/26 04:36:16;;;;;;;9.20;8.07;;;;;;;;;;5241008;27;20354;-87
2024/04/26 04:38:42;;;;;;;8.03;7.33;;;;;;;;;;5247812;27;20451;-87
2024/04/26 04:41:08;;;;;;;8.82;7.57;;;;;;;;;;5247365;27;20443;-87
2024/04/26 04:43:34;;;;;;;9.50;8.70;;;;;;;;;;5247315;27;20224;-87
2024/04/26 04:46:00;;;;;;;8.40;7.80;;;;;;;;;;5195803;27;20251;-89
2024/04/26 04:48:26;;;;;;;8.75;8.00;;;;;;;;;;5185237;27;20642;-87
2024/04/26 04:50:52;;;;;;;9.25;8.55;;;;;;;;;;5214066;27;20229;-87
2024/04/26 04:53:18;;;;;;;9.95;9.00;;;;;;;;;;5213703;27;20224;-88
2024/04/26 04:55:44;;;;;;;7.80;7.30;;;;;;;;;;5158260;27;20237;-88
2024/04/26 04:58:10;;;;;;;8.83;8.13;;;;;;;;;;5213976;27;20513;-87
2024/04/26 05:00:37;;;;;;;9.00;8.30;;;;;;;;;;5185116;27;20472;-88
2024/04/26 05:03:03;;;;;;;8.15;7.55;;;;;;;;;;5184849;27;20453;-87
2024/04/26 05:05:29;;;;;;;8.15;7.40;;;;;;;;;;5213098;27;20237;-84
2024/04/26 05:07:55;;;;;;;8.77;8.05;;;;;;;;;;5216030;27;20287;-85
2024/04/26 05:10:21;;;;;;;9.90;8.40;;;;;;;;;;5212957;27;20225;-82
2024/04/26 05:12:47;;;;;;;10.03;7.60;;;;;;;;;;5213590;27;20569;-85
2024/04/26 05:15:13;;;;;;;8.57;7.80;;;;;;;;;;5212457;27;20986;-86
2024/04/26 05:17:39;;;;;;;11.80;8.27;;;;;;;;;;5213188;27;20904;-85
2024/04/26 05:20:05;;;;;;;7.90;7.30;;;;;;;;;;5213270;27;20466;-88
2024/04/26 05:22:31;;;;;;;8.20;7.60;;;;;;;;;;5212919;27;20765;-86
2024/04/26 05:24:57;;;;;;;9.90;8.10;;;;;;;;;;5184242;27;20327;-84
2024/04/26 05:27:23;;;;;;;10.18;8.70;;;;;;;;;;5212871;27;20453;-85
2024/04/26 05:29:49;;;;;;;9.60;8.30;;;;;;;;;;5214026;27;20741;-85
2024/04/26 05:32:15;;;;;;;8.97;8.30;;;;;;;;;;5215801;27;20946;-84
2024/04/26 05:34:41;;;;;;;9.20;8.40;;;;;;;;;;5221744;27;20505;-85
2024/04/26 05:37:12;;;;;;;8.10;7.30;;;;;;;;;;5219717;27;20540;-85
2024/04/26 05:39:39;;;;;;;13.50;8.60;;;;;;;;;;5215729;27;20264;-84
2024/04/26 05:42:05;;;;;;;8.68;8.07;;;;;;;;;;5214025;27;20229;-86
2024/04/26 05:44:31;;;;;;;8.82;8.13;;;;;;;;;;5211025;27;20245;-85
2024/04/26 05:46:57;;;;;;;8.67;8.07;;;;;;;;;;5213678;27;20623;-85
2024/04/26 05:49:23;;;;;;;10.20;8.25;;;;;;;;;;5212945;27;20535;-86
2024/04/26 05:51:49;;;;;;;9.60;8.75;;;;;;;;;;5212974;27;20241;-82
2024/04/26 05:54:15;;;;;;;8.27;7.70;;;;;;;;;;5212826;27;20229;-86
2024/04/26 05:56:41;;;;;;;8.20;7.27;;;;;;;;;;5212841;27;20513;-85
2024/04/26 05:59:07;;;;;;;8.93;7.30;;;;;;;;;;5213011;27;20509;-86
2024/04/26 06:01:34;;;;;;;8.80;7.47;;;;;;;;;;5216906;27;20818;-85
2024/04/26 06:04:00;;;;;;;7.97;7.38;;;;;;;;;;5245824;27;20766;-85
2024/04/26 06:06:26;;;;;;;8.73;7.93;;;;;;;;;;5245482;27;20267;-84
2024/04/26 06:08:52;;;;;;;8.25;7.55;;;;;;;;;;5245831;27;20275;-84
2024/04/26 06:11:18;;;;;;;7.32;6.82;;;;;;;;;;5240271;27;20220;-86
2024/04/26 06:13:44;;;;;;;8.77;7.90;;;;;;;;;;5211135;27;20259;-85
2024/04/26 06:16:10;;;;;;;8.97;8.10;;;;;;;;;;5211927;27;20453;-85
2024/04/26 06:18:38;;;;;;;9.50;8.60;;;;;;;;;;5211680;27;20785;-86
2024/04/26 06:21:04;;;;;;;11.02;8.48;;;;;;;;;;5212528;27;20518;-85
2024/04/26 06:23:30;;;;;;;9.43;8.52;;;;;;;;;;5212591;27;20698;-86
2024/04/26 06:25:56;;;;;;;9.40;8.53;;;;;;;;;;5212688;27;20229;-86
2024/04/26 06:28:22;;;;;;;9.70;8.27;;;;;;;;;;5228552;27;20519;-86
2024/04/26 06:30:48;;;;;;;9.65;8.63;;;;;;;;;;5245465;27;20447;-85
2024/04/26 06:33:14;;;;;;;9.80;8.90;;;;;;;;;;5212163;27;20271;-86
2024/04/26 06:35:43;;;;;;;10.07;9.25;;;;;;;;;;5212268;27;20445;-85
2024/04/26 06:38:10;;;;;;;8.93;8.23;;;;;;;;;;5212157;27;20236;-85
2024/04/26 06:40:38;;;;;;;9.77;7.88;;;;;;;;;;5212239;27;20232;-84
2024/04/26 06:43:04;;;;;;;7.70;7.20;;;;;;;;;;5212267;27;20267;-86
2024/04/26 06:45:30;;;;;;;8.77;7.93;;;;;;;;;;5211982;27;20225;-86
2024/04/26 06:47:56;;;;;;;8.57;7.77;;;;;;;;;;5212441;27;20224;-86
2024/04/26 06:50:22;;;;;;;9.52;8.63;;;;;;;;;;5212179;27;20449;-86
2024/04/26 06:52:48;;;;;;;11.20;9.10;;;;;;;;;;5182921;27;20269;-86
2024/04/26 06:55:14;;;;;;;8.55;7.85;;;;;;;;;;5211755;27;20793;-86
2024/04/26 06:57:40;;;;;;;8.80;8.00;;;;;;;;;;5212184;27;20229;-85
2024/04/26 07:00:06;;;;;;;9.23;8.40;;;;;;;;;;5182741;27;20905;-85
2024/04/26 07:02:33;;;;;;;8.57;8.02;;;;;;;;;;5211136;27;21048;-86
2024/04/26 07:04:59;;;;;;;8.90;8.00;;;;;;;;;;5211765;27;20229;-85
2024/04/26 07:07:24;;;;;;;10.20;8.13;;;;;;;;;;5182202;27;20255;-84
2024/04/26 07:09:50;;;;;;;8.40;7.80;;;;;;;;;;5211472;27;20465;-85
2024/04/26 07:12:16;;;;;;;8.63;8.02;;;;;;;;;;5211802;27;20449;-86
2024/04/26 07:14:42;;;;;;;8.20;7.60;;;;;;;;;;5211603;27;20325;-85
2024/04/26 07:17:08;;;;;;;9.33;8.30;;;;;;;;;;5211534;27;20449;-85
2024/04/26 07:19:39;;;;;;;8.27;7.78;;;;;;;;;;5211370;27;20457;-85
2024/04/26 07:22:08;;;;;;;8.68;7.97;;;;;;;;;;5211298;27;20267;-86
2024/04/26 07:24:34;;;;;;;8.95;8.18;;;;;;;;;;5211190;27;20259;-86
2024/04/26 07:27:00;;;;;;;8.75;8.05;;;;;;;;;;5211405;27;20237;-85
2024/04/26 07:29:26;;;;;;;9.60;8.13;;;;;;;;;;5213509;27;20225;-86
2024/04/26 07:31:52;;;;;;;8.53;7.93;;;;;;;;;;5215040;27;20453;-86
2024/04/26 07:34:18;;;;;;;8.50;7.90;;;;;;;;;;5213356;27;20513;-85
2024/04/26 07:36:45;;;;;;;8.57;7.67;;;;;;;;;;5214561;27;20448;-85
2024/04/26 07:39:13;;;;;;;9.20;7.75;;;;;;;;;;5214522;27;20527;-85
2024/04/26 07:41:39;;;;;;;8.55;7.85;;;;;;;;;;5219334;27;20353;-86
2024/04/26 07:44:05;;;;;;;8.93;8.30;;;;;;;;;;5218376;27;20232;-85
2024/04/26 07:46:31;;;;;;;9.03;8.10;;;;;;;;;;5217546;27;20841;-86
2024/04/26 07:48:58;;;;;;;8.83;8.03;;;;;;;;;;5214701;27;20445;-85
2024/04/26 07:51:24;;;;;;;10.00;9.00;;;;;;;;;;5214013;27;20484;-86
2024/04/26 07:53:50;;;;;;;10.23;8.47;;;;;;;;;;5214936;27;20566;-85
2024/04/26 07:56:16;;;;;;;8.30;7.50;;;;;;;;;;5214489;27;20505;-86
2024/04/26 07:58:41;;;;;;;8.83;8.13;;;;;;;;;;5214468;27;20985;-86
2024/04/26 08:01:07;;;;;;;9.87;8.87;;;;;;;;;;5244304;27;20633;-86
2024/04/26 08:03:33;;;;;;;9.47;8.50;;;;;;;;;;5236363;27;20508;-86
2024/04/26 08:05:59;;;;;;;8.87;8.13;;;;;;;;;;5214575;27;20504;-86
2024/04/26 08:08:25;;;;;;;8.90;8.10;;;;;;;;;;5185067;27;20509;-87
2024/04/26 08:10:51;;;;;;;9.63;8.20;;;;;;;;;;5214020;27;20441;-86
2024/04/26 08:13:17;;;;;;;9.10;8.23;;;;;;;;;;5214081;27;20553;-86
2024/04/26 08:15:45;;;;;;;9.00;8.10;;;;;;;;;;5214103;27;20457;-84
2024/04/26 08:18:11;;;;;;;8.93;7.40;;;;;;;;;;5185168;27;21012;-85
2024/04/26 08:20:37;;;;;;;9.90;8.90;;;;;;;;;;5214140;27;20449;-86
2024/04/26 08:23:03;;;;;;;12.30;8.40;;;;;;;;;;5214127;27;20449;-85
2024/04/26 08:25:29;;;;;;;9.03;8.23;;;;;;;;;;5214852;27;20445;-85
2024/04/26 08:27:55;;;;;;;8.80;8.03;;;;;;;;;;5213812;27;20568;-85
2024/04/26 08:30:24;;;;;;;9.60;8.90;;;;;;;;;;5184799;27;20441;-84
2024/04/26 08:32:50;;;;;;;9.18;8.25;;;;;;;;;;5213584;27;20496;-85
2024/04/26 08:35:16;;;;;;;10.90;9.57;;;;;;;;;;5214891;27;20249;-85
2024/04/26 08:37:42;;;;;;;10.30;8.85;;;;;;;;;;5213882;27;20517;-85
2024/04/26 08:40:08;;;;;;;10.30;8.20;;;;;;;;;;5212476;27;20718;-86
2024/04/26 08:42:34;;;;;;;9.57;8.57;;;;;;;;;;5213107;27;20449;-86
2024/04/26 08:45:00;;;;;;;8.90;7.43;;;;;;;;;;5184928;27;20263;-85
2024/04/26 08:47:26;;;;;;;9.20;8.00;;;;;;;;;;5213317;27;20560;-86
2024/04/26 08:49:54;;;;;;;8.18;7.18;;;;;;;;;;5213798;27;20267;-85
2024/04/26 08:52:21;;;;;;;11.43;9.25;;;;;;;;;;5213432;27;20272;-86
2024/04/26 08:54:48;;;;;;;8.82;8.02;;;;;;;;;;5214057;27;20225;-86
2024/04/26 08:57:14;;;;;;;10.85;8.50;;;;;;;;;;5213309;27;20277;-86
2024/04/26 08:59:56;;;;;;;9.80;9.07;;;;;;;;;;5213724;27;20351;-85
2024/04/26 09:02:22;;;;;;;10.53;8.87;;;;;;;;;;5213525;27;20453;-86
2024/04/26 09:04:50;;;;;;;10.10;8.30;;;;;;;;;;5216121;27;21083;-86
2024/04/26 09:07:16;;;;;;;10.30;9.27;;;;;;;;;;5208442;27;20540;-86
2024/04/26 09:09:44;;;;;;;10.27;9.23;;;;;;;;;;5213429;27;20504;-86
2024/04/26 09:12:10;;;;;;;9.27;8.47;;;;;;;;;;5213782;27;20569;-85
2024/04/26 09:14:37;;;;;;;9.83;8.83;;;;;;;;;;5184888;27;20508;-86
2024/04/26 09:17:03;;;;;;;14.48;9.48;;;;;;;;;;5213165;27;20453;-85
2024/04/26 09:19:29;;;;;;;11.13;9.50;;;;;;;;;;5213638;27;20225;-86
2024/04/26 09:21:55;;;;;;;10.53;9.60;;;;;;;;;;5213970;27;20494;-85
2024/04/26 09:24:21;;;;;;;10.03;9.20;;;;;;;;;;5213905;27;20461;-85
2024/04/26 09:26:47;;;;;;;10.43;9.60;;;;;;;;;;5214688;27;20495;-85
2024/04/26 09:29:13;;;;;;;9.60;8.70;;;;;;;;;;5213925;27;20500;-86
2024/04/26 09:31:40;;;;;;;10.03;9.33;;;;;;;;;;5213578;27;20456;-86
2024/04/26 09:34:06;;;;;;;11.17;10.10;;;;;;;;;;5222982;27;21080;-86
2024/04/26 09:36:34;;;;;;;10.97;9.70;;;;;;;;;;5246016;27;20514;-86
2024/04/26 09:39:01;;;;;;;10.93;10.03;;;;;;;;;;5246310;27;20456;-86
2024/04/26 09:41:28;;;;;;;10.37;9.50;;;;;;;;;;5217008;27;20456;-86
2024/04/26 09:43:54;;;;;;;9.27;8.50;;;;;;;;;;5246112;27;20848;-86
2024/04/26 09:46:23;;;;;;;13.47;8.97;;;;;;;;;;5221997;27;20825;-84
2024/04/26 09:48:49;;;;;;;12.40;9.30;;;;;;;;;;5239717;27;20460;-87
2024/04/26 09:51:15;;;;;;;9.97;9.07;;;;;;;;;;5245319;27;20464;-87
2024/04/26 09:53:44;;;;;;;11.97;9.03;;;;;;;;;;5245952;27;21019;-87
2024/04/26 09:56:10;;;;;;;10.57;9.53;;;;;;;;;;5246316;27;20522;-86
2024/04/26 09:58:37;;;;;;;9.03;8.13;;;;;;;;;;5246020;27;20463;-87
2024/04/26 10:01:04;;;;;;;11.30;10.20;;;;;;;;;;5245860;27;20523;-86
2024/04/26 10:03:31;;;;;;;16.73;9.63;;;;;;;;;;5213374;27;20445;-86
2024/04/26 10:06:03;;;;;;;11.70;10.43;;;;;;;;;;5212912;27;20459;-87
2024/04/26 10:08:36;;;;;;;14.33;10.93;;;;;;;;;;5212760;27;20509;-87
2024/04/26 10:11:12;;;;;;;13.00;11.73;;;;;;;;;;5212876;27;20448;-86
2024/04/26 10:13:45;;;;;;;11.20;10.20;;;;;;;;;;5212981;27;20538;-86
2024/04/26 10:16:11;;;;;;;13.27;10.50;;;;;;;;;;5240739;27;20988;-86
2024/04/26 10:18:40;;;;;;;10.60;9.70;;;;;;;;;;5217186;27;20960;-86
2024/04/26 10:21:06;;;;;;;12.90;10.67;;;;;;;;;;5245974;27;20444;-85
2024/04/26 10:23:35;;;;;;;10.60;9.70;;;;;;;;;;5224444;27;20449;-86
2024/04/26 10:26:08;;;;;;;12.20;10.10;;;;;;;;;;5212426;27;20438;-86
2024/04/26 10:28:34;;;;;;;11.00;10.00;;;;;;;;;;5244907;27;20543;-84
2024/04/26 10:31:01;;;;;;;10.63;9.63;;;;;;;;;;5245378;27;20865;-86
2024/04/26 10:33:32;;;;;;;12.23;10.30;;;;;;;;;;5244390;27;20541;-87
2024/04/26 10:36:04;;;;;;;12.10;9.70;;;;;;;;;;5216687;27;20455;-85
2024/04/26 10:38:39;;;;;;;11.77;9.63;;;;;;;;;;5245095;27;20771;-85
2024/04/26 10:41:05;;;;;;;10.90;9.87;;;;;;;;;;5245565;27;20514;-86
2024/04/26 10:43:31;;;;;;;12.90;10.33;;;;;;;;;;5244833;27;20976;-85
2024/04/26 10:46:00;;;;;;;11.37;9.57;;;;;;;;;;5212946;27;20539;-86
2024/04/26 10:48:31;;;;;;;10.93;9.83;;;;;;;;;;5211672;27;20494;-88
2024/04/26 10:51:04;;;;;;;11.40;10.30;;;;;;;;;;5211494;27;20517;-86
2024/04/26 10:53:32;;;;;;;10.20;9.30;;;;;;;;;;5211230;27;20505;-87
2024/04/26 10:55:58;;;;;;;10.93;9.83;;;;;;;;;;5211937;27;20453;-86
2024/04/26 10:58:34;;;;;;;11.37;10.30;;;;;;;;;;5211536;27;20445;-86
2024/04/26 11:01:00;;;;;;;10.07;9.00;;;;;;;;;;5217448;27;20471;-85
2024/04/26 11:03:26;;;;;;;19.60;12.93;;;;;;;;;;5245346;27;20491;-88
2024/04/26 11:05:52;;;;;;;11.30;10.33;;;;;;;;;;5231979;27;20488;-87
2024/04/26 11:08:27;;;;;;;12.40;11.30;;;;;;;;;;5214832;27;20502;-86
2024/04/26 11:10:56;;;;;;;11.10;10.20;;;;;;;;;;5214879;27;20448;-86
2024/04/26 11:13:23;;;;;;;13.67;12.37;;;;;;;;;;5214905;27;20444;-86
2024/04/26 11:15:50;;;;;;;13.00;11.30;;;;;;;;;;5214723;27;20571;-86
2024/04/26 11:18:16;;;;;;;17.97;12.07;;;;;;;;;;5214483;27;20497;-86
2024/04/26 11:20:42;;;;;;;10.70;9.80;;;;;;;;;;5185502;27;20457;-86
2024/04/26 11:23:08;;;;;;;11.60;10.40;;;;;;;;;;5214321;27;20567;-86
2024/04/26 11:25:34;;;;;;;12.00;11.00;;;;;;;;;;5213973;27;20637;-86
2024/04/26 11:28:00;;;;;;;13.67;12.17;;;;;;;;;;5214596;27;20509;-86
2024/04/26 11:30:28;;;;;;;13.77;12.60;;;;;;;;;;5214547;27;20792;-86
2024/04/26 11:32:54;;;;;;;12.80;11.57;;;;;;;;;;5214240;27;20768;-86
2024/04/26 11:35:20;;;;;;;11.30;10.30;;;;;;;;;;5214683;27;20528;-87
2024/04/26 11:37:46;;;;;;;11.10;10.23;;;;;;;;;;5214058;27;20509;-87
2024/04/26 11:40:12;;;;;;;11.93;10.63;;;;;;;;;;5214235;27;20795;-87
2024/04/26 11:42:38;;;;;;;11.70;10.47;;;;;;;;;;5184856;27;20509;-88
2024/04/26 11:45:05;;;;;;;11.17;10.27;;;;;;;;;;5214111;27;20484;-88
2024/04/26 11:47:31;;;;;;;11.43;10.40;;;;;;;;;;5214243;27;20465;-86
2024/04/26 11:49:58;;;;;;;11.77;10.70;;;;;;;;;;5214007;27;20546;-87
2024/04/26 11:52:24;;;;;;;12.50;11.33;;;;;;;;;;5213788;27;20529;-87
2024/04/26 11:54:50;;;;;;;11.80;10.50;;;;;;;;;;5213896;27;20456;-87
2024/04/26 11:57:15;;;;;;;12.40;11.27;;;;;;;;;;5214225;27;20464;-87
2024/04/26 11:59:42;;;;;;;11.73;10.77;;;;;;;;;;5214061;27;20445;-87
2024/04/26 12:02:13;;;;;;;11.63;10.83;;;;;;;;;;5246029;27;20507;-87
2024/04/26 12:04:39;;;;;;;11.13;10.33;;;;;;;;;;5246996;27;20427;-87
2024/04/26 12:07:05;;;;;;;11.93;10.93;;;;;;;;;;5247252;27;20428;-87
2024/04/26 12:09:31;;;;;;;12.43;11.27;;;;;;;;;;5246923;27;20552;-87
2024/04/26 12:11:57;;;;;;;13.27;12.03;;;;;;;;;;5247438;27;20952;-86
2024/04/26 12:14:23;;;;;;;13.57;11.50;;;;;;;;;;5234707;27;20501;-87
2024/04/26 12:16:49;;;;;;;13.53;11.80;;;;;;;;;;5213690;27;20433;-86
2024/04/26 12:19:15;;;;;;;11.93;10.80;;;;;;;;;;5213598;27;20464;-87
2024/04/26 12:21:41;;;;;;;14.03;12.47;;;;;;;;;;5213532;27;20504;-87
2024/04/26 12:24:08;;;;;;;12.60;11.03;;;;;;;;;;5213847;27;20453;-84
2024/04/26 12:26:34;;;;;;;13.67;12.27;;;;;;;;;;5213698;27;20461;-87
2024/04/26 12:29:01;;;;;;;12.30;11.20;;;;;;;;;;5213907;27;21009;-87
2024/04/26 12:31:30;;;;;;;13.30;11.90;;;;;;;;;;5213681;27;21109;-87
2024/04/26 12:33:56;;;;;;;13.03;10.57;;;;;;;;;;5213348;27;20429;-86
2024/04/26 12:36:21;;;;;;;12.13;11.00;;;;;;;;;;5239253;27;20471;-86
2024/04/26 12:38:48;;;;;;;12.00;10.90;;;;;;;;;;5247576;27;20524;-87
2024/04/26 12:41:14;;;;;;;12.30;11.30;;;;;;;;;;5246926;27;20986;-88
2024/04/26 12:43:39;;;;;;;12.47;11.33;;;;;;;;;;5246497;27;20504;-87
2024/04/26 12:46:05;;;;;;;20.70;13.27;;;;;;;;;;5246996;27;20512;-87
2024/04/26 12:48:31;;;;;;;13.50;11.50;;;;;;;;;;5246827;27;20455;-86
2024/04/26 12:50:57;;;;;;;13.87;11.80;;;;;;;;;;5221938;27;20461;-86
2024/04/26 12:53:23;;;;;;;13.50;12.10;;;;;;;;;;5215997;27;20501;-87
2024/04/26 12:55:49;;;;;;;14.90;11.27;;;;;;;;;;5213580;27;20570;-87
2024/04/26 12:58:15;;;;;;;12.10;11.00;;;;;;;;;;5213501;27;20445;-87
2024/04/26 13:00:42;;;;;;;12.63;11.33;;;;;;;;;;5183721;27;20533;-87
2024/04/26 13:03:08;;;;;;;15.70;11.63;;;;;;;;;;5213155;27;21009;-87
2024/04/26 13:05:34;;;;;;;14.20;12.10;;;;;;;;;;5184009;27;20465;-87
2024/04/26 13:08:00;;;;;;;13.13;11.90;;;;;;;;;;5184238;27;20561;-87
2024/04/26 13:10:26;;;;;;;12.73;11.37;;;;;;;;;;5235371;27;20512;-87
2024/04/26 13:12:52;;;;;;;12.50;11.07;;;;;;;;;;5252255;27;20449;-87
2024/04/26 13:15:18;;;;;;;14.00;12.60;;;;;;;;;;5266319;27;20456;-88
2024/04/26 13:17:44;;;;;;;11.93;11.00;;;;;;;;;;5234300;27;20550;-86
2024/04/26 13:20:10;;;;;;;17.23;11.47;;;;;;;;;;5227386;27;20503;-86
2024/04/26 13:22:36;;;;;;;13.60;12.20;;;;;;;;;;5213338;27;20565;-87
2024/04/26 13:25:02;;;;;;;12.43;11.20;;;;;;;;;;5213157;27;20444;-86
2024/04/26 13:27:28;;;;;;;15.63;12.03;;;;;;;;;;5212889;27;20449;-86
2024/04/26 13:29:54;;;;;;;14.60;13.10;;;;;;;;;;5212943;27;20844;-87
2024/04/26 13:32:21;;;;;;;13.30;12.00;;;;;;;;;;5212965;27;20497;-86
2024/04/26 13:34:48;;;;;;;13.97;12.63;;;;;;;;;;5212052;27;20461;-86
2024/04/26 13:37:14;;;;;;;15.97;13.10;;;;;;;;;;5213091;27;20461;-85
2024/04/26 13:39:40;;;;;;;14.37;13.00;;;;;;;;;;5212791;27;20511;-86
2024/04/26 13:42:06;;;;;;;13.90;12.70;;;;;;;;;;5212857;27;20534;-85
2024/04/26 13:44:32;;;;;;;13.00;11.90;;;;;;;;;;5212386;27;20516;-86
2024/04/26 13:46:59;;;;;;;14.10;12.53;;;;;;;;;;5212912;27;20926;-86
2024/04/26 13:49:28;;;;;;;14.17;12.87;;;;;;;;;;5213342;27;20453;-86
2024/04/26 13:51:54;;;;;;;12.80;11.60;;;;;;;;;;5245537;27;20455;-85
2024/04/26 13:54:22;;;;;;;19.37;11.97;;;;;;;;;;5246171;27;20503;-86
2024/04/26 13:56:48;;;;;;;14.23;12.33;;;;;;;;;;5217360;27;20511;-85
2024/04/26 13:59:15;;;;;;;12.93;11.90;;;;;;;;;;5245790;27;21127;-86
2024/04/26 14:01:41;;;;;;;13.17;11.87;;;;;;;;;;5244668;27;20955;-86
2024/04/26 14:04:07;;;;;;;13.90;12.57;;;;;;;;;;5219257;27;20755;-86
2024/04/26 14:06:33;;;;;;;13.60;12.30;;;;;;;;;;5212432;27;20417;-85
2024/04/26 14:08:59;;;;;;;12.40;11.10;;;;;;;;;;5211845;27;21033;-86
2024/04/26 14:11:25;;;;;;;14.57;12.87;;;;;;;;;;5212098;27;20444;-87
2024/04/26 14:13:51;;;;;;;12.97;11.73;;;;;;;;;;5183166;27;20516;-86
2024/04/26 14:16:17;;;;;;;12.80;11.80;;;;;;;;;;5212737;27;20465;-86
2024/04/26 14:18:46;;;;;;;12.60;11.40;;;;;;;;;;5213565;27;20473;-87
2024/04/26 14:21:12;;;;;;;14.10;12.70;;;;;;;;;;5212456;27;20485;-86
2024/04/26 14:23:38;;;;;;;13.47;12.27;;;;;;;;;;5212230;27;20449;-88
2024/04/26 14:26:04;;;;;;;11.70;10.70;;;;;;;;;;5212227;27;20449;-87
2024/04/26 14:28:30;;;;;;;12.80;11.50;;;;;;;;;;5212285;27;20460;-87